Statewide Weather Sensors

Route Weather Station Name Milepost Date / Time Surface Status Surface Temp Precip Intensity Wind Avg Wind Gust Dir Dewpoint Humidity Air Temp Visibility
I 25 Wyo Hill 3.52 Dec 15, 2018 04:10 am     None None 6 mph 8 mph NW 10.4°F 29% 41.0°F > 1/2 mi
I 25 Whitaker 30.2 Dec 15, 2018 04:10 am Dry 30.2°F None None 20 mph 22 mph W 17.6°F 47% 35.6°F > 1/2 mi
I 25 Bear Creek 46.77 Dec 15, 2018 04:10 am Dry 32.0°F None None 12 mph 18 mph W 10.4°F 25% 44.6°F > 1/2 mi
I 25 Bordeaux 70.8 Dec 15, 2018 04:10 am Trace Moisture 33.8°F None None 17 mph 32 mph W 14.0°F 38% 37.4°F > 1/2 mi
I 25 Coleman 98.7 Dec 15, 2018 04:10 am N/A   None None 16 mph 25 mph SW 12.2°F 24% 46.4°F > 1/2 mi
I 25 Platte/Converse County Line 119.9 Dec 15, 2018 04:10 am Dry 32.0°F None None 22 mph 27 mph S 32.0°F 27% 28.4°F > 1/2 mi
I 25 Deer Creek 164.2 Dec 15, 2018 04:10 am Dry 35.6°F None None 22 mph 32 mph W 14.0°F 29% 42.8°F > 1/2 mi
I 25 F Street Hill 189.51 Dec 15, 2018 04:10 am Dry 32.0°F None None 20 mph 38 mph W 12.2°F 34% 37.4°F > 1/2 mi
I 25 Twenty Mile Hill 207.2 Dec 15, 2018 03:50 am N/A   None None 19 mph 25 mph SW 14.0°F 52% 28.4°F > 1/2 mi
I 25 I-25 Divide 267.3 Dec 15, 2018 04:10 am N/A 30.2°F None None 21 mph 25 mph W 14.0°F 32% 42.8°F > 1/2 mi
I 80 Evanston POE .06 Dec 15, 2018 04:10 am Chemically Wet 17.6°F None   0 mph 9 mph W 17.6°F 77% 23.0°F > 1/2 mi
I 80 Evanston 4.2 Dec 15, 2018 04:10 am Trace Moisture 24.8°F None None 5 mph 6 mph SW 21.2°F 72% 30.2°F > 1/2 mi
I 80 Bear River Drive 6.94 Dec 15, 2018 04:10 am Dry 17.6°F None   0 mph 2 mph NW 21.2°F 76% 28.4°F > 1/2 mi
I 80 Painter 10.16 Dec 15, 2018 04:10 am Ice Watch 23.0°F None None 9 mph 13 mph W 21.2°F 67% 32.0°F > 1/2 mi
I 80 First Divide 13.86 Dec 15, 2018 04:10 am Ice Watch 23.0°F None   9 mph 11 mph SW 19.4°F 73% 26.6°F  
I 80 US 189 Interchange 17.66 Dec 15, 2018 04:10 am Ice Watch 24.8°F None None 13 mph 17 mph SW 21.2°F 69% 30.2°F > 1/2 mi
I 80 Coal Road 20.95 Dec 15, 2018 04:10 am Ice Watch 26.6°F None None 15 mph 19 mph SW 21.2°F 69% 30.2°F > 1/2 mi
I 80 Leroy 23.35 Dec 15, 2018 04:10 am Dry 19.4°F None None 4 mph 7 mph E 8.6°F 78% 14.0°F > 1/2 mi
I 80 French 27.6 Dec 15, 2018 04:10 am Ice Watch 24.8°F None None 5 mph 7 mph W 19.4°F 67% 28.4°F > 1/2 mi
I 80 Church Butte 52.65 Dec 15, 2018 04:10 am N/A   None None 1 mph 4 mph SE 10.4°F 87% 14.0°F > 1/2 mi
I 80 Peru Hill 82.31 Dec 15, 2018 04:10 am N/A   None   4 mph 6 mph S 5.0°F 72% 12.2°F  
I 80 Green River Tunnel 90.5 Dec 15, 2018 04:10 am Dry 21.2°F None   5 mph 6 mph S 6.8°F 73% 14.0°F  
I 80 Rock Springs West 97.9 Dec 15, 2018 04:10 am Dry 17.6°F None None 2 mph 5 mph E 8.6°F 81% 12.2°F > 1/2 mi
I 80 Baxter Road 111.5 Dec 15, 2018 04:10 am N/A   None None 4 mph 7 mph NE 6.8°F 85% 10.4°F > 1/2 mi
I 80 Mile Marker 124.5 124.5 Dec 15, 2018 04:10 am Dry 17.6°F None None 2 mph 3 mph W 6.8°F 79% 12.2°F > 1/2 mi
I 80 Point of Rocks 129.8 Dec 15, 2018 04:10 am Dry 17.6°F None None 3 mph 5 mph W 8.6°F 82% 12.2°F > 1/2 mi
I 80 Bitter Creek 141.83 Dec 15, 2018 04:10 am Ice Watch 23.0°F None   8 mph 11 mph S 6.8°F 51% 21.2°F  
I 80 Tipton 156.72 Dec 15, 2018 04:10 am Dry 23.0°F None None 24 mph 29 mph S 14.0°F 60% 24.8°F > 1/2 mi
I 80 Continental Divide 184.3 Dec 15, 2018 04:10 am N/A   None   19 mph 25 mph S 8.6°F 56% 23.0°F  
I 80 Sinclair 221.7 Dec 15, 2018 04:10 am N/A   None None 22 mph 32 mph SW 12.2°F 45% 32.0°F > 1/2 mi
I 80 Walcott Junction 234.66 Dec 15, 2018 04:10 am Dry 23.0°F None None 33 mph 38 mph S 14.0°F 53% 30.2°F > 1/2 mi
I 80 Dana Ridge 244.8 Dec 15, 2018 04:10 am Trace Moisture 23.0°F None None 25 mph 33 mph N 14.0°F 57% 26.6°F > 1/2 mi
I 80 Mile Marker 249.1 249.1 Dec 15, 2018 04:10 am Dry 23.0°F None None 25 mph 30 mph W 12.2°F 47% 30.2°F > 1/2 mi
I 80 Halleck Ridge 252.16 Dec 15, 2018 04:10 am Ice Watch 24.8°F None None 30 mph 37 mph SW 12.2°F 44% 32.0°F > 1/2 mi
I 80 Elk Mountain 256.17 Dec 15, 2018 04:10 am Dry 26.6°F None None 9 mph 17 mph N 10.4°F 35% 33.8°F > 1/2 mi
I 80 County Road 402 262 Dec 15, 2018 04:10 am Trace Moisture 23.0°F None None 24 mph 29 mph SW 12.2°F 48% 30.2°F > 1/2 mi
I 80 Wagonhound 266.58 Dec 15, 2018 04:10 am Dry 24.8°F None None 27 mph 33 mph SW 12.2°F 50% 28.4°F > 1/2 mi
I 80 Foote Creek 269.5 Dec 15, 2018 04:10 am Dry 26.6°F None None 33 mph 37 mph SW 10.4°F 39% 32.0°F > 1/2 mi
I 80 Arlington 271.8 Dec 15, 2018 04:10 am Dry 30.2°F None None 37 mph 47 mph W 6.8°F 31% 33.8°F > 1/2 mi
I 80 Arlington East 273.85 Dec 15, 2018 04:10 am Dry 28.4°F None None 30 mph 40 mph W 8.6°F 33% 33.8°F > 1/2 mi
I 80 Cooper Cove 279.36 Dec 13, 2018 07:09 pm                      
I 80 Strouss Hill 283.75 Dec 15, 2018 04:10 am Dry 26.6°F None None 7 mph 13 mph SW 8.6°F 29% 37.4°F > 1/2 mi
I 80 Quealy Dome 289.5 Dec 15, 2018 04:10 am Dry 24.8°F None None 17 mph 19 mph SW 14.0°F 53% 30.2°F > 1/2 mi
I 80 Herrick Lane 297.66 Dec 15, 2018 04:10 am Ice Watch 24.8°F None None 30 mph 37 mph SW 12.2°F 44% 32.0°F > 1/2 mi
I 80 Summit East 325.8 Dec 15, 2018 04:10 am Dry 26.6°F None None 29 mph 37 mph SW 6.8°F 35% 30.2°F > 1/2 mi
I 80 Vedauwoo 329.4 Dec 15, 2018 04:10 am Dry 28.4°F None None 32 mph 43 mph W 3.2°F 28% 32.0°F  
I 80 Lone Tree 333.32 Dec 15, 2018 04:10 am N/A   None None 23 mph 33 mph SE       > 1/2 mi
I 80 Buford East 336.1 Dec 15, 2018 04:10 am Dry 30.2°F None None 16 mph 24 mph W 6.8°F 30% 35.6°F > 1/2 mi
I 80 Remount Road 340.5 Dec 15, 2018 04:10 am N/A   None None 15 mph 19 mph W 6.8°F 26% 39.2°F > 1/2 mi
I 80 Otto 347.69 Dec 15, 2018 04:10 am N/A   None None 22 mph 29 mph W 5.0°F 21% 41.0°F > 1/2 mi
I 80 MP 353 353 Dec 15, 2018 04:10 am Dry 35.6°F None None 19 mph 27 mph W 6.8°F 22% 42.8°F > 1/2 mi
I 80 Cheyenne East 373 Dec 15, 2018 04:10 am Dry 33.8°F None None 11 mph 14 mph W 10.4°F 30% 39.2°F > 1/2 mi
I 90 Montana State Line .1 Dec 15, 2018 04:10 am Wet 33.8°F None None 4 mph 14 mph NW 12.2°F 19% 53.6°F > 1/2 mi
I 90 Pompey Creek 35.3 Dec 15, 2018 04:10 am N/A   None None 2 mph 6 mph SW   30% 30.2°F > 1/2 mi
I 90 Piney Creek Interchange 44.7 Dec 15, 2018 04:10 am Dry 28.4°F None None 1 mph 11 mph E 15.8°F 39% 37.4°F > 1/2 mi
I 90 Kearny Divide 45.33 Dec 15, 2018 04:10 am Dry 30.2°F None None 4 mph 12 mph SW   26% 30.2°F > 1/2 mi
I 90 Indian Creek Road 83.3 Dec 15, 2018 04:10 am Dry 30.2°F None None 4 mph 12 mph SW   26% 30.2°F > 1/2 mi
I 90 Dead Horse 91.5 Dec 15, 2018 04:10 am Dry 32.0°F None None 22 mph 26 mph SW 14.0°F 35% 39.2°F > 1/2 mi
I 90 Mile Marker 108 108 Dec 15, 2018 04:10 am N/A   None None 21 mph 27 mph SW 19.4°F 53% 33.8°F > 1/2 mi
I 90 Inyan Kara 170.5 Dec 15, 2018 04:10 am N/A 26.6°F None   16 mph 19 mph S 14.0°F 41% 33.8°F  
I 90 Beulah 205.9 Dec 15, 2018 04:10 am Dry 30.2°F None None 29 mph 39 mph SW 17.6°F 31% 46.4°F > 1/2 mi
US 14 Ucross 27.83 Dec 15, 2018 04:10 am Dry 23.0°F None None 2 mph 2 mph NE 21.2°F 84% 24.8°F N/A
US 14 Granite Pass 38.95 Dec 15, 2018 04:10 am N/A   None None 3 mph 5 mph N 8.6°F 46% 26.6°F N/A
US 16 Big Horn County Line 44.01 Dec 15, 2018 04:10 am Trace Moisture 12.2°F None None 0 mph 0 mph N 6.8°F 72% 14.0°F > 1/2 mi
US 189 Rim US 191 127 Dec 15, 2018 04:10 am N/A 10.4°F None None 4 mph 6 mph NW 6.8°F 84% 10.4°F  
US 191 Farson 40.45 Dec 15, 2018 04:10 am Dry 14.0°F None None 1 mph 2 mph W 1.4°F 83% 5.0°F > 1/2 mi
US 20 Natrona 30 Dec 15, 2018 04:10 am Dry 24.8°F None None 1 mph 8 mph SW 12.2°F 48% 30.2°F > 1/2 mi
US 20 Hiland 57.4 Dec 15, 2018 04:10 am Dry 26.6°F None None 22 mph 28 mph S 12.2°F 41% 33.8°F > 1/2 mi
US 26 Wind River Lake 26.05 Dec 15, 2018 04:10 am Chemically Wet 15.8°F None None 5 mph 14 mph W 12.2°F 61% 23.0°F > 1/2 mi
US 287 Beaver Rim 48.1 Dec 15, 2018 04:10 am N/A   None None 27 mph 35 mph SW 14.0°F 80% 17.6°F > 1/2 mi
US 287 Pumpkin Vine 420.4 Dec 15, 2018 04:10 am Ice Watch 28.4°F None None 16 mph 19 mph W 5.0°F 28% 33.8°F > 1/2 mi
US 30 Sage Junction 34 Dec 15, 2018 04:10 am N/A   None None 2 mph 3 mph E        
US 30 Nugget Canyon 39.7 Dec 15, 2018 04:10 am Dry 15.8°F None   2 mph 3 mph SE 5.0°F 76% 10.4°F  
US 85 Gun Barrel 46.8 Dec 15, 2018 04:10 am Dry 30.2°F None None 24 mph 30 mph W 17.6°F 37% 41.0°F  
WY 120 Meeteetse 61.5 Dec 15, 2018 04:10 am Dry 32.0°F None   36 mph 50 mph SW 14.0°F 28% 44.6°F  
WY 210 Wildcat Trail 21.52 Dec 15, 2018 04:10 am Dry 30.2°F None None 15 mph 29 mph W 6.8°F 26% 37.4°F > 1/2 mi
WY 210 Hynds Lodge Road 24.55 Dec 15, 2018 04:10 am Ice Watch 28.4°F None None 12 mph 20 mph SW 6.8°F 26% 37.4°F > 1/2 mi
WY 22 Teton Pass 11.2 Dec 15, 2018 04:10 am N/A 21.2°F None None 5 mph 7 mph W 21.2°F 88% 23.0°F > 1/2 mi
WY 220 Pathfinder Hill 80.1 Dec 15, 2018 04:10 am Dry 23.0°F None None 19 mph 27 mph SW 12.2°F 53% 28.4°F > 1/2 mi
WY 230 Skyline 230 113.2 Dec 15, 2018 04:10 am N/A 23.0°F None None 15 mph 29 mph SW 10.4°F 40% 32.0°F > 1/2 mi
WY 258 Outer Drive 13.77 Dec 15, 2018 04:10 am Dry 41.0°F None None 37 mph 50 mph SW 10.4°F 30% 39.2°F > 1/2 mi
WY 28 New South Pass 41.4 Dec 15, 2018 04:10 am Dry 21.2°F None None 22 mph 25 mph W 15.8°F 56% 28.4°F > 1/2 mi
WY 28 Red Canyon 59.5 Dec 15, 2018 04:10 am     None None 8 mph 12 mph W 23.0°F 47% 41.0°F > 1/2 mi
WY 296 Chief Joseph 32.96 Dec 15, 2018 04:10 am Dry 23.0°F None None 37 mph 52 mph NW 14.0°F 46% 33.8°F  
WY 372 Shute Creek 36 Dec 15, 2018 04:10 am N/A   None None 1 mph 2 mph NW 5.0°F 85% 8.6°F  
WY 387 Pine Tree Junction 131.79 Dec 15, 2018 04:10 am Dry 28.4°F None None 24 mph 33 mph SW 15.8°F 50% 33.8°F > 1/2 mi
WY 487 Shirley Rim 37 Dec 15, 2018 04:10 am Ice Watch 21.2°F None None 20 mph 26 mph SW 12.2°F 53% 28.4°F > 1/2 mi
WY 59 Belle Fourche 87 Dec 15, 2018 04:10 am Dry 33.8°F None   35 mph 44 mph SW        

Contact Us Copyright 2018 Disclaimer Privacy Policy Media